Time;durP1;ratioP1;P1;durP2;ratioP2;P2;SDS_P1;SDS_P2;PMS_P1;PMS_P2;Temp;Humidity;BMP_temperature;BMP_pressure;BME280_temperature;BME280_humidity;BME280_pressure;Samples;Min_cycle;Max_cycle;Signal;HPM_P1;HPM_P2
2023/06/18 00:01:59;;;;;;;12.57;10.30;;;12.20;99.90;;;;;;8256899;28;20253;-65
2023/06/18 00:06:02;;;;;;;11.57;10.37;;;12.30;99.90;;;;;;8253284;28;20231;-66
2023/06/18 00:10:07;;;;;;;11.60;10.40;;;12.20;99.90;;;;;;8279253;28;20203;-66
2023/06/18 00:14:08;;;;;;;11.87;10.77;;;12.20;99.90;;;;;;8264678;28;20179;-65
2023/06/18 00:18:09;;;;;;;10.97;9.93;;;12.20;99.90;;;;;;8267059;28;20198;-65
2023/06/18 00:22:15;;;;;;;11.13;10.03;;;12.20;99.90;;;;;;8251788;28;20231;-64
2023/06/18 00:26:16;;;;;;;12.60;11.30;;;12.10;99.90;;;;;;8269551;28;20211;-64
2023/06/18 00:30:17;;;;;;;14.47;11.17;;;12.10;99.90;;;;;;8281418;28;20222;-66
2023/06/18 00:34:18;;;;;;;12.57;11.27;;;12.10;99.90;;;;;;8252825;28;20199;-66
2023/06/18 00:38:20;;;;;;;11.53;10.07;;;12.10;99.90;;;;;;8280076;28;20223;-64
2023/06/18 00:42:23;;;;;;;12.60;11.33;;;12.10;99.90;;;;;;8251928;28;20396;-65
2023/06/18 00:46:26;;;;;;;12.90;11.60;;;12.00;99.90;;;;;;8249415;28;20233;-64
2023/06/18 00:50:28;;;;;;;12.63;11.33;;;12.00;99.90;;;;;;8265629;28;20274;-65
2023/06/18 00:54:32;;;;;;;12.67;11.30;;;12.00;99.90;;;;;;8270661;28;20194;-65
2023/06/18 00:58:35;;;;;;;12.20;10.90;;;11.90;99.90;;;;;;8271856;28;20218;-65
2023/06/18 01:02:36;;;;;;;12.83;11.53;;;11.90;99.90;;;;;;8258880;28;20306;-66
2023/06/18 01:06:39;;;;;;;11.63;10.53;;;11.90;99.90;;;;;;8284600;28;20234;-65
2023/06/18 01:10:42;;;;;;;14.37;12.20;;;11.80;99.90;;;;;;8256602;28;20209;-65
2023/06/18 01:14:50;;;;;;;15.10;12.40;;;11.80;99.90;;;;;;8285921;28;20194;-65
2023/06/18 01:18:52;;;;;;;13.63;11.40;;;11.80;99.90;;;;;;8258831;28;20241;-66
2023/06/18 01:23:01;;;;;;;14.27;11.83;;;11.80;99.90;;;;;;8258098;28;20224;-65
2023/06/18 01:27:03;;;;;;;14.13;12.67;;;11.70;99.90;;;;;;8272365;28;20218;-65
2023/06/18 01:31:04;;;;;;;14.87;11.70;;;11.70;99.90;;;;;;8256484;28;20268;-65
2023/06/18 01:35:07;;;;;;;13.83;12.10;;;11.70;99.90;;;;;;8256760;28;20208;-64
2023/06/18 01:39:23;;;;;;;14.23;11.83;;;11.60;99.90;;;;;;8265937;28;20209;-64
2023/06/18 01:43:49;;;;;;;18.57;12.83;;;11.50;99.90;;;;;;8259572;28;20199;-65
2023/06/18 01:47:53;;;;;;;12.80;11.43;;;11.60;99.90;;;;;;8270530;28;20261;-65
2023/06/18 01:52:00;;;;;;;12.30;11.10;;;11.50;99.90;;;;;;8259266;28;20198;-64
2023/06/18 01:56:02;;;;;;;14.20;12.70;;;11.50;99.90;;;;;;8272043;28;20210;-66
2023/06/18 02:00:04;;;;;;;12.87;11.67;;;11.40;99.90;;;;;;8269616;28;20198;-64
2023/06/18 02:04:05;;;;;;;12.30;10.67;;;11.40;99.90;;;;;;8255036;28;20212;-65
2023/06/18 02:08:06;;;;;;;10.83;9.73;;;11.30;99.90;;;;;;8253236;28;20232;-66
2023/06/18 02:12:08;;;;;;;10.97;9.90;;;11.30;99.90;;;;;;8254105;28;20250;-66
2023/06/18 02:16:09;;;;;;;16.50;12.17;;;11.20;99.90;;;;;;8268206;28;20186;-71
2023/06/18 02:20:10;;;;;;;13.20;11.87;;;11.30;99.90;;;;;;8273951;28;20193;-69
2023/06/18 02:24:11;;;;;;;13.67;11.20;;;11.30;99.90;;;;;;8256832;28;20241;-66
2023/06/18 02:28:12;;;;;;;12.20;10.50;;;11.20;99.90;;;;;;8253617;28;20244;-66
2023/06/18 02:32:16;;;;;;;11.93;10.73;;;11.20;99.90;;;;;;8260963;28;20189;-63
2023/06/18 02:36:18;;;;;;;10.77;9.67;;;11.20;99.90;;;;;;8254545;28;20199;-64
2023/06/18 02:40:22;;;;;;;9.90;8.93;;;11.20;99.90;;;;;;8257622;28;20237;-65
2023/06/18 02:44:28;;;;;;;14.93;11.77;;;11.10;99.90;;;;;;8257921;28;20266;-64
2023/06/18 02:48:29;;;;;;;10.63;9.53;;;11.20;99.90;;;;;;8282344;28;20225;-68
2023/06/18 02:52:30;;;;;;;11.47;10.27;;;11.20;99.90;;;;;;8258962;28;20222;-65
2023/06/18 02:56:34;;;;;;;13.63;11.90;;;11.20;99.90;;;;;;8254992;28;20205;-67
2023/06/18 03:00:38;;;;;;;13.20;10.97;;;11.30;99.90;;;;;;8254303;28;20229;-67
2023/06/18 03:04:39;;;;;;;14.27;12.67;;;11.40;99.90;;;;;;8254809;28;20217;-68
2023/06/18 03:08:40;;;;;;;15.40;12.03;;;11.40;99.90;;;;;;8268119;28;20224;-68
2023/06/18 03:12:44;;;;;;;16.13;13.40;;;11.50;99.90;;;;;;8264770;28;20202;-66
2023/06/18 03:16:46;;;;;;;15.43;13.93;;;11.90;99.90;;;;;;8263746;28;20190;-67
2023/06/18 03:20:47;;;;;;;15.10;13.60;;;12.50;99.90;;;;;;8266988;28;20183;-67
2023/06/18 03:24:49;;;;;;;14.27;12.90;;;13.00;99.90;;;;;;8271081;28;20194;-67
2023/06/18 03:28:50;;;;;;;11.63;9.97;;;13.80;99.90;;;;;;8266147;28;20188;-67
2023/06/18 03:32:52;;;;;;;10.17;9.10;;;14.60;99.90;;;;;;8256185;28;20219;-67
2023/06/18 03:36:53;;;;;;;8.83;8.03;;;15.40;99.90;;;;;;8254325;28;20195;-68
2023/06/18 03:40:54;;;;;;;8.43;7.73;;;16.30;99.90;;;;;;8264699;28;20184;-67
2023/06/18 03:44:55;;;;;;;7.87;6.37;;;17.10;99.90;;;;;;8266456;28;20218;-70
2023/06/18 03:48:56;;;;;;;8.07;7.37;;;17.80;99.90;;;;;;8256551;28;20179;-67
2023/06/18 03:53:01;;;;;;;6.97;5.80;;;18.20;1.00;;;;;;8281422;28;20279;-68
2023/06/18 03:57:08;;;;;;;6.40;5.80;;;18.70;1.00;;;;;;8251385;28;20239;-67
2023/06/18 04:01:09;;;;;;;5.70;5.13;;;18.90;99.90;;;;;;8256800;28;20215;-68
2023/06/18 04:05:12;;;;;;;6.07;5.47;;;19.20;87.00;;;;;;8250771;28;20226;-68
2023/06/18 04:09:15;;;;;;;7.43;5.87;;;19.20;4.30;;;;;;8252375;28;20199;-71
2023/06/18 04:13:17;;;;;;;6.00;5.40;;;19.50;1.00;;;;;;8248453;28;20191;-68
2023/06/18 04:17:18;;;;;;;5.30;4.30;;;19.70;1.00;;;;;;8255699;28;20220;-70
2023/06/18 04:21:20;;;;;;;6.77;4.87;;;20.10;1.00;;;;;;8265363;28;20205;-66
2023/06/18 04:25:21;;;;;;;6.97;5.37;;;20.50;1.00;;;;;;8278340;28;20226;-66
2023/06/18 04:29:22;;;;;;;5.23;4.73;;;21.00;1.00;;;;;;8267937;28;20210;-65
2023/06/18 04:33:23;;;;;;;8.63;5.60;;;21.40;1.00;;;;;;8253119;28;20186;-66
2023/06/18 04:37:24;;;;;;;6.40;4.70;;;21.30;1.00;;;;;;8253504;28;20229;-66
2023/06/18 04:41:25;;;;;;;6.37;5.53;;;21.10;1.00;;;;;;8249501;28;20187;-66
2023/06/18 04:45:29;;;;;;;5.87;5.27;;;20.90;1.00;;;;;;8246891;28;20215;-66
2023/06/18 04:49:30;;;;;;;6.37;5.77;;;20.50;1.00;;;;;;8250667;28;20191;-65
2023/06/18 04:53:32;;;;;;;5.80;5.30;;;20.30;1.00;;;;;;8257551;28;20201;-67
2023/06/18 04:57:33;;;;;;;5.50;5.00;;;20.20;1.00;;;;;;8248573;28;20314;-66
2023/06/18 05:01:34;;;;;;;7.40;6.00;;;20.40;1.00;;;;;;8238560;28;20196;-66
2023/06/18 05:05:38;;;;;;;7.70;5.80;;;20.30;1.00;;;;;;8253487;28;20231;-67
2023/06/18 05:09:41;;;;;;;6.77;6.00;;;20.30;1.00;;;;;;8241207;28;20195;-66
2023/06/18 05:13:42;;;;;;;6.27;5.70;;;20.10;1.00;;;;;;8262644;28;20196;-67
2023/06/18 05:17:43;;;;;;;6.30;5.63;;;19.40;1.00;;;;;;8249474;28;20275;-67
2023/06/18 05:21:44;;;;;;;6.80;6.20;;;19.00;31.60;;;;;;8254801;28;20188;-67
2023/06/18 05:25:45;;;;;;;8.10;6.67;;;18.80;79.10;;;;;;8253384;28;20214;-67
2023/06/18 05:29:46;;;;;;;9.23;7.33;;;18.50;99.90;;;;;;8281669;28;20191;-66
2023/06/18 05:33:47;;;;;;;8.93;7.80;;;18.30;99.90;;;;;;8250015;28;20184;-66
2023/06/18 05:37:49;;;;;;;8.70;7.80;;;18.30;99.90;;;;;;8262005;28;20268;-66
2023/06/18 05:41:53;;;;;;;9.60;7.27;;;18.10;99.90;;;;;;8262876;28;20187;-66
2023/06/18 05:45:54;;;;;;;8.37;7.50;;;18.00;99.90;;;;;;8253406;28;20276;-66
2023/06/18 05:49:55;;;;;;;8.17;7.37;;;18.00;99.90;;;;;;8257549;28;20274;-66
2023/06/18 05:53:56;;;;;;;8.17;7.30;;;18.20;99.90;;;;;;8272993;28;20198;-67
2023/06/18 05:57:57;;;;;;;8.93;7.90;;;18.30;99.90;;;;;;8268027;28;20191;-66
2023/06/18 06:01:58;;;;;;;8.80;7.90;;;18.20;99.90;;;;;;8255072;28;20187;-64
2023/06/18 06:06:01;;;;;;;8.23;6.93;;;18.10;99.90;;;;;;8262235;28;20215;-64
2023/06/18 06:10:02;;;;;;;7.73;6.93;;;18.00;99.90;;;;;;8253514;28;20207;-65
2023/06/18 06:14:06;;;;;;;7.40;6.70;;;18.00;99.90;;;;;;8261046;28;20298;-65
2023/06/18 06:18:08;;;;;;;7.50;6.77;;;18.10;99.90;;;;;;8252437;28;20195;-65
2023/06/18 06:22:09;;;;;;;6.77;6.17;;;18.20;99.90;;;;;;8270283;28;20191;-65
2023/06/18 06:26:10;;;;;;;8.70;7.40;;;18.40;99.90;;;;;;8261080;28;20215;-66
2023/06/18 06:30:11;;;;;;;7.27;6.67;;;18.60;99.90;;;;;;8254615;28;20190;-65
2023/06/18 06:34:12;;;;;;;7.03;6.33;;;18.60;58.80;;;;;;8271454;28;20191;-66
2023/06/18 06:38:13;;;;;;;7.17;5.83;;;18.70;29.20;;;;;;8251333;28;20227;-66
2023/06/18 06:42:14;;;;;;;8.17;7.37;;;18.90;27.50;;;;;;8286043;28;20191;-66
2023/06/18 06:46:15;;;;;;;9.10;7.53;;;19.00;35.00;;;;;;8248580;28;20226;-67
2023/06/18 06:50:16;;;;;;;9.63;7.83;;;19.10;43.40;;;;;;8266710;28;20187;-66
2023/06/18 06:54:18;;;;;;;8.97;8.07;;;19.30;61.90;;;;;;8259900;28;20198;-66
2023/06/18 06:58:19;;;;;;;9.40;8.40;;;19.40;23.40;;;;;;8264858;28;20211;-66
2023/06/18 07:02:20;;;;;;;9.33;8.10;;;19.40;26.10;;;;;;8257170;28;20286;-65
2023/06/18 07:06:22;;;;;;;9.87;8.87;;;19.40;53.40;;;;;;8252753;28;20211;-67
2023/06/18 07:10:23;;;;;;;10.03;7.07;;;19.40;25.80;;;;;;8263015;28;20226;-66
2023/06/18 07:14:25;;;;;;;8.20;7.47;;;19.60;21.60;;;;;;8268717;28;20211;-66
2023/06/18 07:18:26;;;;;;;8.90;8.00;;;20.00;31.10;;;;;;8252776;28;20298;-65
2023/06/18 07:22:27;;;;;;;8.83;7.20;;;20.30;12.10;;;;;;8255909;28;20242;-65
2023/06/18 07:26:28;;;;;;;8.70;7.90;;;20.50;1.00;;;;;;8282270;28;20226;-66
2023/06/18 07:30:29;;;;;;;9.93;8.00;;;20.90;1.00;;;;;;8255434;28;20190;-65
2023/06/18 07:34:30;;;;;;;7.03;6.43;;;21.00;1.00;;;;;;8253191;28;20192;-65
2023/06/18 07:38:31;;;;;;;8.60;6.93;;;21.30;1.00;;;;;;8268137;28;20196;-66
2023/06/18 07:42:32;;;;;;;7.93;7.13;;;21.70;1.00;;;;;;8254415;28;20188;-65
2023/06/18 07:46:34;;;;;;;6.90;6.20;;;21.60;1.00;;;;;;8254180;28;20305;-65
2023/06/18 07:50:36;;;;;;;7.17;6.50;;;21.30;1.00;;;;;;8254777;28;20198;-67
2023/06/18 07:54:37;;;;;;;6.60;5.77;;;21.30;1.00;;;;;;8253976;28;20191;-67
2023/06/18 07:58:38;;;;;;;6.40;5.57;;;21.70;1.00;;;;;;8250093;28;20229;-67
2023/06/18 08:02:44;;;;;;;6.57;5.97;;;22.30;1.00;;;;;;8250636;28;20215;-68
2023/06/18 08:06:48;;;;;;;6.63;6.03;;;22.60;1.00;;;;;;8269395;28;20211;-68
2023/06/18 08:10:50;;;;;;;6.77;6.17;;;22.10;1.00;;;;;;8265336;28;20242;-65
2023/06/18 08:14:51;;;;;;;6.17;5.40;;;22.00;1.00;;;;;;8265122;28;20242;-68
2023/06/18 08:18:53;;;;;;;5.10;4.57;;;21.70;1.00;;;;;;8263126;28;20220;-66
2023/06/18 08:22:53;;;;;;;6.10;5.60;;;21.80;1.00;;;;;;8254168;28;20278;-69
2023/06/18 08:26:55;;;;;;;5.87;5.27;;;22.10;1.00;;;;;;8254679;28;20207;-65
2023/06/18 08:30:55;;;;;;;5.73;5.20;;;21.90;1.00;;;;;;8252745;28;20310;-67
2023/06/18 08:34:56;;;;;;;5.97;5.10;;;22.10;1.00;;;;;;8257561;28;20192;-66
2023/06/18 08:38:57;;;;;;;6.00;5.50;;;22.60;1.00;;;;;;8251482;28;20253;-67
2023/06/18 08:42:58;;;;;;;5.90;5.37;;;22.80;1.00;;;;;;8265085;28;20206;-67
2023/06/18 08:47:03;;;;;;;8.60;5.63;;;23.00;1.00;;;;;;8265634;28;20230;-67
2023/06/18 08:51:05;;;;;;;5.20;4.70;;;23.70;1.00;;;;;;8252708;28;20249;-68
2023/06/18 08:55:11;;;;;;;5.43;4.90;;;24.50;1.00;;;;;;8261852;28;20191;-68
2023/06/18 08:59:12;;;;;;;6.10;5.60;;;24.60;1.00;;;;;;8264518;28;20190;-69
2023/06/18 09:03:14;;;;;;;7.37;5.50;;;24.70;1.00;;;;;;8265433;28;20218;-67
2023/06/18 09:07:15;;;;;;;5.47;5.03;;;24.70;1.00;;;;;;8250875;28;20222;-67
2023/06/18 09:11:16;;;;;;;6.10;5.60;;;25.10;1.00;;;;;;8266888;28;20230;-67
2023/06/18 09:15:17;;;;;;;5.18;4.68;;;25.70;1.00;;;;;;8255552;28;20191;-68
2023/06/18 09:19:19;;;;;;;5.50;5.00;;;26.00;1.00;;;;;;8259336;28;20193;-68
2023/06/18 09:23:20;;;;;;;5.97;5.47;;;26.10;1.00;;;;;;8287544;28;20187;-66
2023/06/18 09:27:30;;;;;;;6.00;5.50;;;25.50;1.00;;;;;;8257181;28;20215;-66
2023/06/18 09:31:30;;;;;;;6.30;5.70;;;24.30;1.00;;;;;;8255160;28;20192;-67
2023/06/18 09:35:57;;;;;;;6.10;5.60;;;23.70;1.00;;;;;;8299500;27;20642;-68
2023/06/18 09:40:08;;;;;;;7.80;6.00;;;23.70;1.00;;;;;;8310582;28;20286;-67
2023/06/18 09:44:09;;;;;;;6.70;6.10;;;23.70;1.00;;;;;;8292248;28;20198;-67
2023/06/18 09:48:11;;;;;;;7.47;5.07;;;23.90;1.00;;;;;;8306882;28;20285;-67
2023/06/18 09:52:13;;;;;;;6.37;4.93;;;24.20;1.00;;;;;;8307247;28;20224;-67
2023/06/18 09:56:15;;;;;;;6.13;5.10;;;24.30;1.00;;;;;;8292127;28;20207;-67
2023/06/18 10:00:17;;;;;;;6.10;5.60;;;24.70;1.00;;;;;;8307085;28;20222;-68
2023/06/18 10:04:18;;;;;;;5.70;5.20;;;25.20;1.00;;;;;;8291691;28;20210;-67
2023/06/18 10:08:20;;;;;;;6.20;5.05;;;25.80;1.00;;;;;;8290774;28;20198;-68
2023/06/18 10:12:21;;;;;;;5.55;5.00;;;26.30;1.00;;;;;;8295884;28;20310;-67
2023/06/18 10:16:26;;;;;;;6.40;5.25;;;26.90;1.00;;;;;;8297652;28;20187;-66
2023/06/18 10:20:28;;;;;;;6.00;5.47;;;27.30;1.00;;;;;;8293911;28;20216;-69
2023/06/18 10:24:46;;;;;;;5.30;4.82;;;27.40;1.00;;;;;;8294643;28;20198;-66
2023/06/18 10:28:55;;;;;;;5.50;5.10;;;27.50;1.00;;;;;;8306894;28;20194;-68
2023/06/18 10:32:58;;;;;;;6.20;5.28;;;27.00;1.00;;;;;;8293747;28;20245;-68
2023/06/18 10:37:00;;;;;;;5.30;4.80;;;26.60;1.00;;;;;;8298471;28;20281;-68
2023/06/18 10:41:12;;;;;;;5.20;4.68;;;26.80;1.00;;;;;;8293877;28;20187;-68
2023/06/18 10:45:19;;;;;;;5.20;4.80;;;26.30;1.00;;;;;;8279796;28;20200;-68
2023/06/18 10:49:20;;;;;;;5.30;4.82;;;26.40;1.00;;;;;;8282922;28;20365;-67
2023/06/18 10:53:24;;;;;;;5.43;4.97;;;26.70;1.00;;;;;;8269245;28;20269;-66
2023/06/18 10:57:29;;;;;;;5.30;4.90;;;27.00;1.00;;;;;;8271006;28;20207;-67
2023/06/18 11:01:31;;;;;;;5.50;5.00;;;26.50;1.00;;;;;;8269876;28;20274;-67
2023/06/18 11:05:32;;;;;;;6.00;5.40;;;26.30;1.00;;;;;;8270923;28;20216;-67
2023/06/18 11:09:58;;;;;;;4.88;4.43;;;25.20;1.00;;;;;;8271310;28;20202;-67
2023/06/18 11:14:19;;;;;;;5.80;4.78;;;24.90;1.00;;;;;;8283857;28;20212;-67
2023/06/18 11:18:22;;;;;;;5.32;4.82;;;25.00;1.00;;;;;;8267255;28;20260;-67
2023/06/18 11:22:23;;;;;;;5.00;4.60;;;25.10;1.00;;;;;;8269096;28;20282;-66
2023/06/18 11:26:26;;;;;;;7.25;6.55;;;25.20;1.00;;;;;;8270160;28;20183;-67
2023/06/18 11:30:27;;;;;;;5.82;5.32;;;25.30;1.00;;;;;;8268325;28;20179;-66
2023/06/18 11:34:29;;;;;;;4.80;4.40;;;25.40;1.00;;;;;;8271289;28;20211;-67
2023/06/18 11:38:31;;;;;;;4.88;4.47;;;26.00;1.00;;;;;;8264766;28;20180;-67
2023/06/18 11:42:32;;;;;;;4.95;4.45;;;26.50;1.00;;;;;;8271807;28;20247;-66
2023/06/18 11:46:40;;;;;;;4.57;4.18;;;26.90;1.00;;;;;;8266397;28;20255;-67
2023/06/18 11:50:41;;;;;;;4.50;4.10;;;27.30;1.00;;;;;;8267809;28;20205;-67
2023/06/18 11:54:44;;;;;;;4.97;4.57;;;27.80;1.00;;;;;;8268632;28;20239;-74
2023/06/18 11:58:45;;;;;;;4.88;4.47;;;28.20;1.00;;;;;;8270317;28;20215;-75
2023/06/18 12:02:46;;;;;;;5.57;3.90;;;28.60;1.00;;;;;;8276469;28;20214;-73
2023/06/18 12:06:47;;;;;;;4.20;3.80;;;28.30;1.00;;;;;;8274000;28;20198;-73
2023/06/18 12:10:48;;;;;;;4.10;3.70;;;27.90;1.00;;;;;;8270746;28;20191;-75
2023/06/18 12:15:30;;;;;;;3.88;3.58;;;27.40;1.00;;;;;;8271264;28;20203;-75
2023/06/18 12:19:32;;;;;;;3.63;3.33;;;26.80;1.00;;;;;;8270375;28;20219;-73
2023/06/18 12:23:36;;;;;;;11.60;8.50;;;26.50;1.00;;;;;;8271757;28;20194;-72
2023/06/18 12:27:37;;;;;;;7.32;6.63;;;26.10;1.00;;;;;;8272455;28;20188;-72
2023/06/18 12:31:38;;;;;;;10.20;7.80;;;25.80;1.00;;;;;;8273476;28;20192;-72
2023/06/18 12:35:56;;;;;;;6.97;6.28;;;25.60;1.00;;;;;;8280441;28;20307;-72
2023/06/18 12:40:18;;;;;;;7.38;6.65;;;25.70;1.00;;;;;;8272599;28;20183;-73
2023/06/18 12:44:20;;;;;;;5.10;4.70;;;25.80;1.00;;;;;;8273616;28;20276;-73
2023/06/18 12:48:26;;;;;;;4.53;3.90;;;25.80;1.00;;;;;;8272303;28;20187;-73
2023/06/18 12:52:27;;;;;;;4.30;3.80;;;26.00;1.00;;;;;;8277849;28;20212;-73
2023/06/18 12:56:28;;;;;;;4.82;4.43;;;26.20;1.00;;;;;;8265685;28;20203;-74
2023/06/18 13:00:29;;;;;;;4.68;4.28;;;25.90;1.00;;;;;;8270396;28;20285;-72
2023/06/18 13:04:30;;;;;;;4.30;3.90;;;25.60;1.00;;;;;;8269671;28;20305;-74
2023/06/18 13:08:31;;;;;;;4.32;3.92;;;25.70;1.00;;;;;;8267126;28;20193;-72
2023/06/18 13:12:33;;;;;;;3.80;3.47;;;26.10;1.00;;;;;;8270221;28;20239;-73
2023/06/18 13:16:34;;;;;;;4.05;3.60;;;26.60;1.00;;;;;;8273668;28;20188;-74
2023/06/18 13:20:37;;;;;;;3.78;3.47;;;27.10;1.00;;;;;;8270690;28;20179;-72
2023/06/18 13:24:38;;;;;;;4.20;3.80;;;27.40;1.00;;;;;;8274557;28;20199;-73
2023/06/18 13:28:38;;;;;;;4.10;3.70;;;28.00;1.00;;;;;;8268797;28;20187;-71
2023/06/18 13:32:45;;;;;;;4.00;3.70;;;27.30;1.00;;;;;;8267582;28;20218;-72
2023/06/18 13:36:48;;;;;;;3.78;3.47;;;27.10;1.00;;;;;;8284306;28;20242;-73
2023/06/18 13:40:51;;;;;;;4.00;3.70;;;27.30;1.00;;;;;;8277222;28;20241;-71
2023/06/18 13:44:53;;;;;;;3.42;3.22;;;27.70;1.00;;;;;;8267625;28;20199;-71
2023/06/18 13:48:54;;;;;;;5.30;3.47;;;28.00;1.00;;;;;;8266232;28;20241;-72
2023/06/18 13:52:55;;;;;;;3.90;3.60;;;28.00;1.00;;;;;;8272320;28;20219;-73
2023/06/18 13:56:56;;;;;;;3.63;3.33;;;27.80;1.00;;;;;;8276153;28;20233;-73
2023/06/18 14:00:57;;;;;;;4.15;3.85;;;28.00;1.00;;;;;;8268536;28;20191;-71
2023/06/18 14:04:58;;;;;;;3.50;3.20;;;28.30;1.00;;;;;;8273873;28;20282;-73
2023/06/18 14:08:59;;;;;;;4.05;3.13;;;28.10;1.00;;;;;;8264293;28;20188;-71
2023/06/18 14:13:00;;;;;;;3.90;2.90;;;27.40;1.00;;;;;;8267857;28;20275;-71
2023/06/18 14:17:09;;;;;;;3.63;3.35;;;26.80;1.00;;;;;;8265957;28;20207;-71
2023/06/18 14:21:12;;;;;;;3.95;3.50;;;26.10;1.00;;;;;;8270019;28;20194;-71
2023/06/18 14:25:13;;;;;;;4.80;4.40;;;25.70;1.00;;;;;;8274489;28;20230;-72
2023/06/18 14:29:14;;;;;;;5.45;4.95;;;25.80;1.00;;;;;;8274496;28;20245;-73
2023/06/18 14:33:19;;;;;;;5.43;4.93;;;26.00;1.00;;;;;;8274913;28;20226;-70
2023/06/18 14:37:22;;;;;;;8.93;7.00;;;26.00;1.00;;;;;;8275440;28;20187;-69
2023/06/18 14:41:23;;;;;;;9.25;7.68;;;26.00;1.00;;;;;;8275816;28;20214;-71
2023/06/18 14:45:23;;;;;;;4.75;3.83;;;25.60;1.00;;;;;;8273577;28;20202;-70
2023/06/18 14:49:25;;;;;;;3.92;3.55;;;25.40;1.00;;;;;;8273645;28;20192;-72
2023/06/18 14:53:26;;;;;;;5.00;4.50;;;25.40;1.00;;;;;;8276451;28;20215;-72
2023/06/18 14:57:27;;;;;;;4.88;4.38;;;25.60;1.00;;;;;;8268924;28;20184;-72
2023/06/18 15:01:29;;;;;;;7.70;6.90;;;25.90;1.00;;;;;;8283002;28;20187;-72
2023/06/18 15:05:30;;;;;;;3.83;3.53;;;26.20;1.00;;;;;;8280788;28;20211;-72
2023/06/18 15:09:31;;;;;;;3.92;3.45;;;26.40;1.00;;;;;;8275472;28;20274;-73
2023/06/18 15:13:32;;;;;;;4.13;3.35;;;26.40;1.00;;;;;;8295147;28;20211;-73
2023/06/18 15:17:33;;;;;;;4.25;3.60;;;26.20;1.00;;;;;;8281613;28;20183;-72
2023/06/18 15:21:34;;;;;;;4.90;4.43;;;26.00;1.00;;;;;;8273663;28;20223;-72
2023/06/18 15:25:35;;;;;;;3.72;3.42;;;25.90;1.00;;;;;;8273708;28;20184;-74
2023/06/18 15:29:36;;;;;;;3.30;3.03;;;25.80;1.00;;;;;;8288389;28;20215;-72
2023/06/18 15:33:38;;;;;;;3.97;3.67;;;26.00;1.00;;;;;;8284789;28;20217;-72
2023/06/18 15:37:39;;;;;;;4.88;3.70;;;26.30;1.00;;;;;;8258411;28;20208;-72
2023/06/18 15:41:40;;;;;;;4.72;3.38;;;26.30;1.00;;;;;;8279651;28;20232;-73
2023/06/18 15:45:41;;;;;;;3.78;3.42;;;26.40;1.00;;;;;;8270893;28;20192;-72
2023/06/18 15:49:42;;;;;;;3.50;3.20;;;26.50;1.00;;;;;;8271924;28;20266;-72
2023/06/18 15:53:44;;;;;;;3.50;3.20;;;26.60;1.00;;;;;;8266901;28;20225;-71
2023/06/18 15:57:45;;;;;;;3.35;3.05;;;26.60;1.00;;;;;;8275339;28;20199;-72
2023/06/18 16:01:46;;;;;;;4.22;3.08;;;26.70;1.00;;;;;;8261718;28;20210;-72
2023/06/18 16:05:48;;;;;;;3.80;3.40;;;26.70;1.00;;;;;;8270692;28;20211;-72
2023/06/18 16:09:49;;;;;;;5.45;3.65;;;26.80;1.00;;;;;;8268587;28;20198;-72
2023/06/18 16:13:50;;;;;;;3.28;3.05;;;26.80;1.00;;;;;;8267671;28;20222;-72
2023/06/18 16:17:52;;;;;;;3.42;3.13;;;26.80;1.00;;;;;;8273340;28;20184;-72
2023/06/18 16:21:53;;;;;;;3.60;3.30;;;26.70;1.00;;;;;;8272123;28;20192;-72
2023/06/18 16:25:55;;;;;;;4.05;3.00;;;26.60;1.00;;;;;;8272233;28;20187;-73
2023/06/18 16:29:59;;;;;;;5.20;3.22;;;26.50;1.00;;;;;;8269520;28;20212;-71
2023/06/18 16:34:00;;;;;;;3.63;3.33;;;26.40;1.00;;;;;;8270626;28;20215;-72
2023/06/18 16:38:04;;;;;;;3.17;2.97;;;26.50;1.00;;;;;;8271684;28;20221;-71
2023/06/18 16:42:06;;;;;;;3.42;3.13;;;26.50;1.00;;;;;;8267406;28;20286;-72
2023/06/18 16:46:13;;;;;;;3.42;3.13;;;26.60;1.00;;;;;;8269915;28;20195;-72
2023/06/18 16:50:20;;;;;;;3.33;3.03;;;26.70;1.00;;;;;;8272046;28;20246;-73
2023/06/18 16:54:21;;;;;;;4.13;3.45;;;26.90;1.00;;;;;;8270564;28;20218;-72
2023/06/18 16:58:22;;;;;;;4.07;3.17;;;27.00;1.00;;;;;;8271384;28;20180;-71
2023/06/18 17:02:23;;;;;;;3.42;3.13;;;27.20;1.00;;;;;;8277011;28;20195;-72
2023/06/18 17:06:25;;;;;;;3.97;3.53;;;27.30;1.00;;;;;;8277112;28;20209;-71
2023/06/18 17:10:26;;;;;;;4.00;3.67;;;27.40;1.00;;;;;;8277895;28;20191;-72
2023/06/18 17:14:27;;;;;;;3.22;2.88;;;27.40;1.00;;;;;;8276381;28;20214;-73
2023/06/18 17:18:28;;;;;;;3.60;3.30;;;27.30;1.00;;;;;;8276476;28;20182;-73
2023/06/18 17:22:29;;;;;;;3.30;3.00;;;27.00;1.00;;;;;;8271764;28;20187;-73
2023/06/18 17:26:32;;;;;;;3.63;3.20;;;26.80;1.00;;;;;;8271500;28;20187;-72
2023/06/18 17:30:33;;;;;;;3.00;2.80;;;26.50;1.00;;;;;;8277063;28;20279;-73
2023/06/18 17:34:34;;;;;;;3.40;3.10;;;26.60;1.00;;;;;;8280526;28;20242;-73
2023/06/18 17:38:35;;;;;;;3.30;3.00;;;27.60;1.00;;;;;;8284058;28;20241;-73
2023/06/18 17:42:37;;;;;;;3.10;2.90;;;28.90;1.00;;;;;;8283130;28;20208;-74
2023/06/18 17:46:38;;;;;;;3.13;2.92;;;30.10;1.00;;;;;;8286678;28;20191;-73
2023/06/18 17:50:39;;;;;;;3.10;2.90;;;31.00;1.00;;;;;;8284060;28;20206;-74
2023/06/18 17:54:50;;;;;;;3.50;3.20;;;31.60;1.00;;;;;;8284177;28;20210;-73
2023/06/18 17:58:51;;;;;;;3.00;2.80;;;31.70;1.00;;;;;;8282050;28;20191;-73
2023/06/18 18:02:57;;;;;;;3.38;3.08;;;31.50;1.00;;;;;;8283977;28;20219;-73
2023/06/18 18:07:00;;;;;;;3.25;3.05;;;30.90;1.00;;;;;;8283311;28;20294;-73
2023/06/18 18:11:01;;;;;;;3.30;3.00;;;30.30;1.00;;;;;;8286401;28;20219;-72
2023/06/18 18:15:02;;;;;;;3.08;2.83;;;29.40;1.00;;;;;;8288576;28;20215;-72
2023/06/18 18:19:03;;;;;;;4.90;4.40;;;28.40;1.00;;;;;;8277932;28;20271;-72
2023/06/18 18:23:04;;;;;;;9.32;8.35;;;27.50;1.00;;;;;;8276823;28;20277;-72
2023/06/18 18:27:05;;;;;;;11.25;9.40;;;26.70;1.00;;;;;;8280363;28;20199;-72
2023/06/18 18:31:07;;;;;;;19.80;16.15;;;26.10;1.00;;;;;;8273803;28;20280;-72
2023/06/18 18:35:08;;;;;;;16.30;12.70;;;25.50;1.00;;;;;;8281745;28;20223;-73
2023/06/18 18:39:12;;;;;;;9.93;8.90;;;25.40;1.00;;;;;;8276612;28;20184;-72
2023/06/18 18:43:14;;;;;;;6.93;6.32;;;25.00;1.00;;;;;;8278795;28;20191;-72
2023/06/18 18:47:15;;;;;;;5.78;5.05;;;24.40;1.00;;;;;;8274792;28;20217;-72
2023/06/18 18:51:16;;;;;;;5.03;4.60;;;23.80;1.00;;;;;;8274363;28;20194;-71
2023/06/18 18:55:17;;;;;;;5.20;4.80;;;23.30;1.00;;;;;;8276254;28;20239;-71
2023/06/18 18:59:19;;;;;;;5.90;5.40;;;22.80;1.00;;;;;;8277937;28;20251;-71
2023/06/18 19:03:20;;;;;;;5.70;5.20;;;22.30;1.00;;;;;;8274785;28;20222;-71
2023/06/18 19:07:21;;;;;;;5.70;5.10;;;21.90;17.80;;;;;;8270167;28;20203;-71
2023/06/18 19:11:22;;;;;;;5.93;5.43;;;21.60;36.30;;;;;;8280618;28;20218;-72
2023/06/18 19:15:27;;;;;;;6.13;5.63;;;21.30;94.60;;;;;;8268579;28;20215;-72
2023/06/18 19:19:28;;;;;;;6.30;5.77;;;21.00;99.90;;;;;;8277606;28;20186;-70
2023/06/18 19:23:33;;;;;;;6.43;5.83;;;20.70;99.90;;;;;;8275407;28;20225;-71
2023/06/18 19:27:34;;;;;;;6.30;5.80;;;20.40;99.90;;;;;;8274251;28;20205;-71
2023/06/18 19:31:35;;;;;;;6.50;6.00;;;20.10;99.90;;;;;;8274234;28;20179;-72
2023/06/18 19:35:36;;;;;;;6.83;6.23;;;19.80;99.90;;;;;;8274570;28;20219;-72
2023/06/18 19:39:37;;;;;;;7.63;6.93;;;19.60;99.90;;;;;;8272629;28;20229;-67
2023/06/18 19:43:38;;;;;;;8.37;7.67;;;19.40;99.90;;;;;;8267791;28;20194;-68
2023/06/18 19:47:39;;;;;;;7.60;7.00;;;19.30;99.90;;;;;;8271274;28;20218;-69
2023/06/18 19:51:40;;;;;;;7.03;6.43;;;19.10;99.90;;;;;;8265058;28;20191;-68
2023/06/18 19:55:41;;;;;;;6.80;6.20;;;18.80;99.90;;;;;;8270661;28;20293;-68
2023/06/18 19:59:42;;;;;;;7.27;6.67;;;18.60;99.90;;;;;;8267883;28;20225;-67
2023/06/18 20:03:43;;;;;;;6.83;6.23;;;18.40;99.90;;;;;;8268580;28;20274;-67
2023/06/18 20:07:44;;;;;;;7.50;6.90;;;18.30;99.90;;;;;;8281639;28;20373;-67
2023/06/18 20:11:48;;;;;;;7.53;6.93;;;18.10;99.90;;;;;;8268947;28;20443;-67
2023/06/18 20:15:49;;;;;;;8.03;7.33;;;17.90;99.90;;;;;;8266410;28;20207;-67
2023/06/18 20:19:51;;;;;;;7.63;7.00;;;17.80;1.00;;;;;;8263734;28;20234;-67
2023/06/18 20:23:53;;;;;;;8.53;7.83;;;17.60;1.00;;;;;;8263415;28;20366;-67
2023/06/18 20:27:54;;;;;;;8.10;7.40;;;17.50;1.00;;;;;;8268736;28;20202;-67
2023/06/18 20:31:55;;;;;;;7.83;7.13;;;17.40;1.00;;;;;;8264497;28;20172;-66
2023/06/18 20:35:56;;;;;;;8.13;7.33;;;17.20;35.20;;;;;;8265852;28;20230;-67
2023/06/18 20:39:57;;;;;;;8.23;7.53;;;17.10;99.90;;;;;;8269374;28;20187;-68
2023/06/18 20:44:03;;;;;;;9.00;8.30;;;16.90;99.90;;;;;;8265337;28;20190;-67
2023/06/18 20:48:04;;;;;;;7.33;6.73;;;16.80;99.90;;;;;;8270498;28;20207;-68
2023/06/18 20:52:05;;;;;;;8.83;8.13;;;16.60;99.90;;;;;;8280014;28;20217;-66
2023/06/18 20:56:06;;;;;;;8.60;7.80;;;16.50;99.90;;;;;;8267382;28;20225;-67
2023/06/18 21:00:08;;;;;;;7.70;7.00;;;16.30;99.90;;;;;;8269189;28;20183;-67
2023/06/18 21:04:09;;;;;;;9.30;8.50;;;16.20;1.00;;;;;;8282260;28;20303;-65
2023/06/18 21:08:10;;;;;;;9.33;8.53;;;16.10;1.00;;;;;;8262928;28;20196;-68